Time;durP1;ratioP1;P1;durP2;ratioP2;P2;SDS_P1;SDS_P2;PMS_P1;PMS_P2;Temp;Humidity;BMP_temperature;BMP_pressure;BME280_temperature;BME280_humidity;BME280_pressure;Samples;Min_cycle;Max_cycle;Signal;HPM_P1;HPM_P2
2022/01/01 00:00:27;;;;;;;0.00;0.00;;;7.90;90.00;;;;;;4161887;28;20099;-62
2022/01/01 00:02:51;;;;;;;0.00;0.00;;;7.90;90.00;;;;;;4161727;28;20046;-62
2022/01/01 00:05:14;;;;;;;0.00;0.00;;;7.90;90.00;;;;;;4161739;28;20132;-61
2022/01/01 00:07:39;;;;;;;0.00;0.00;;;7.90;89.90;;;;;;4175734;28;20556;-61
2022/01/01 00:10:03;;;;;;;0.00;0.00;;;7.90;89.50;;;;;;4175766;28;20599;-63
2022/01/01 00:12:26;;;;;;;0.00;0.00;;;7.90;89.30;;;;;;4161584;28;20049;-63
2022/01/01 00:14:48;;;;;;;0.00;0.00;;;7.90;89.00;;;;;;4161760;28;20053;-60
2022/01/01 00:17:11;;;;;;;0.00;0.00;;;7.90;89.10;;;;;;4161399;28;20060;-59
2022/01/01 00:19:34;;;;;;;0.00;0.00;;;7.90;89.10;;;;;;4189551;28;20084;-62
2022/01/01 00:21:56;;;;;;;0.00;0.00;;;7.80;89.10;;;;;;4161501;28;20072;-62
2022/01/01 00:24:19;;;;;;;0.00;0.00;;;7.70;89.10;;;;;;4163548;28;20048;-62
2022/01/01 00:26:41;;;;;;;0.00;0.00;;;7.80;89.20;;;;;;4165762;28;20048;-62
2022/01/01 00:29:04;;;;;;;0.00;0.00;;;7.80;89.30;;;;;;4164628;28;20123;-63
2022/01/01 00:31:28;;;;;;;0.00;0.00;;;7.80;89.20;;;;;;4164278;28;20103;-64
2022/01/01 00:33:50;;;;;;;0.00;0.00;;;7.90;89.20;;;;;;4165754;28;20057;-62
2022/01/01 00:36:14;;;;;;;0.00;0.00;;;7.80;89.20;;;;;;4164569;28;20048;-63
2022/01/01 00:38:37;;;;;;;0.00;0.00;;;7.90;89.10;;;;;;4164557;28;20057;-62
2022/01/01 00:40:59;;;;;;;0.00;0.00;;;7.90;88.80;;;;;;4164975;28;20049;-62
2022/01/01 00:43:24;;;;;;;0.00;0.00;;;7.80;88.80;;;;;;4165413;28;20096;-62
2022/01/01 00:45:47;;;;;;;0.00;0.00;;;7.80;88.80;;;;;;4165588;28;20597;-63
2022/01/01 00:48:10;;;;;;;0.00;0.00;;;7.70;88.80;;;;;;4165408;28;20188;-62
2022/01/01 00:50:32;;;;;;;0.00;0.00;;;7.70;88.80;;;;;;4165311;28;20068;-62
2022/01/01 00:52:58;;;;;;;0.00;0.00;;;7.70;88.70;;;;;;4165342;28;20107;-62
2022/01/01 00:55:20;;;;;;;0.00;0.00;;;7.70;88.60;;;;;;4165196;28;20064;-63
2022/01/01 00:57:43;;;;;;;0.00;0.00;;;7.70;88.80;;;;;;4164822;28;20052;-62
2022/01/01 01:00:07;;;;;;;0.00;0.00;;;7.70;88.70;;;;;;4163938;28;20167;-62
2022/01/01 01:02:31;;;;;;;0.00;0.00;;;7.60;88.50;;;;;;4165280;28;20052;-63
2022/01/01 01:04:54;;;;;;;0.00;0.00;;;7.60;88.40;;;;;;4165339;28;20500;-63
2022/01/01 01:07:16;;;;;;;0.00;0.00;;;7.60;88.40;;;;;;4165443;28;20089;-62
2022/01/01 01:09:41;;;;;;;0.00;0.00;;;7.60;88.40;;;;;;4165167;28;20498;-63
2022/01/01 01:12:04;;;;;;;0.00;0.00;;;7.60;88.40;;;;;;4164737;28;20507;-62
2022/01/01 01:14:28;;;;;;;0.00;0.00;;;7.60;89.00;;;;;;4154723;28;20155;-62
2022/01/01 01:16:54;;;;;;;0.00;0.00;;;7.60;89.00;;;;;;4178613;28;20472;-61
2022/01/01 01:19:23;;;;;;;0.00;0.00;;;7.60;88.30;;;;;;4179997;28;20478;-63
2022/01/01 01:21:48;;;;;;;0.00;0.00;;;7.60;89.00;;;;;;4180298;28;20113;-63
2022/01/01 01:24:14;;;;;;;0.00;0.00;;;7.50;88.50;;;;;;4179911;28;20061;-63
2022/01/01 01:26:49;;;;;;;0.00;0.00;;;7.60;88.70;;;;;;4179393;28;20072;-63
2022/01/01 01:29:12;;;;;;;0.00;0.00;;;7.60;89.00;;;;;;4164936;28;20045;-64
2022/01/01 01:31:36;;;;;;;0.00;0.00;;;7.60;88.40;;;;;;4174430;28;20510;-62
2022/01/01 01:34:01;;;;;;;0.00;0.00;;;7.60;88.20;;;;;;4178499;28;20099;-63
2022/01/01 01:36:24;;;;;;;0.00;0.00;;;7.70;88.10;;;;;;4180263;28;20087;-63
2022/01/01 01:38:47;;;;;;;0.00;0.00;;;7.60;88.00;;;;;;4180238;28;20061;-63
2022/01/01 01:41:16;;;;;;;0.00;0.00;;;7.60;88.10;;;;;;4179201;28;20079;-63
2022/01/01 01:43:38;;;;;;;0.00;0.00;;;7.60;88.00;;;;;;4179271;28;20056;-64
2022/01/01 01:46:04;;;;;;;0.00;0.00;;;7.60;88.00;;;;;;4178121;28;20049;-63
2022/01/01 01:48:27;;;;;;;0.00;0.00;;;7.70;87.90;;;;;;4180343;28;20496;-63
2022/01/01 01:50:50;;;;;;;0.00;0.00;;;7.70;87.80;;;;;;4180070;28;20095;-64
2022/01/01 01:53:20;;;;;;;0.00;0.00;;;7.70;87.70;;;;;;4179618;28;20075;-63
2022/01/01 01:55:43;;;;;;;0.00;0.00;;;7.70;87.70;;;;;;4165510;28;20044;-62
2022/01/01 01:58:06;;;;;;;0.00;0.00;;;7.60;87.60;;;;;;4174686;28;20126;-63
2022/01/01 02:03:09;;;;;;;0.00;0.00;;;7.60;87.70;;;;;;4180630;28;20190;-62
2022/01/01 02:05:36;;;;;;;0.00;0.00;;;7.60;87.50;;;;;;4174741;28;20064;-64
2022/01/01 02:07:59;;;;;;;0.00;0.00;;;7.50;87.70;;;;;;4168277;28;20548;-63
2022/01/01 02:10:22;;;;;;;0.00;0.00;;;7.50;87.80;;;;;;4179803;28;20138;-63
2022/01/01 02:12:55;;;;;;;0.00;0.00;;;7.50;87.70;;;;;;4179561;28;20099;-63
2022/01/01 02:18:21;;;;;;;0.00;0.00;;;7.50;87.50;;;;;;4170055;28;20064;-64
2022/01/01 02:20:49;;;;;;;0.00;0.00;;;7.40;87.60;;;;;;4167046;28;20187;-62
2022/01/01 02:23:14;;;;;;;0.00;0.00;;;7.40;87.40;;;;;;4170642;28;20056;-62
2022/01/01 02:25:37;;;;;;;0.00;0.00;;;7.40;87.40;;;;;;4163754;28;20139;-63
2022/01/01 02:28:02;;;;;;;0.00;0.00;;;7.30;87.30;;;;;;4171027;28;20135;-63
2022/01/01 02:30:26;;;;;;;0.00;0.00;;;7.40;87.20;;;;;;4180249;28;20142;-63
2022/01/01 02:32:49;;;;;;;0.00;0.00;;;7.30;87.30;;;;;;4179583;28;20525;-62
2022/01/01 02:35:15;;;;;;;0.00;0.00;;;7.30;87.50;;;;;;4160168;28;20107;-63
2022/01/01 02:37:45;;;;;;;0.00;0.00;;;7.30;87.60;;;;;;4173436;28;20164;-62
2022/01/01 02:40:09;;;;;;;0.00;0.00;;;7.30;87.60;;;;;;4167286;28;20140;-62
2022/01/01 02:42:32;;;;;;;0.00;0.00;;;7.30;87.70;;;;;;4165053;28;20061;-63
2022/01/01 02:44:55;;;;;;;0.00;0.00;;;7.30;87.90;;;;;;4180433;28;20466;-62
2022/01/01 02:47:18;;;;;;;0.00;0.00;;;7.40;87.80;;;;;;4179707;28;20064;-64
2022/01/01 02:49:40;;;;;;;0.00;0.00;;;7.30;88.10;;;;;;4176228;28;20593;-63
2022/01/01 02:52:04;;;;;;;0.00;0.00;;;7.30;88.40;;;;;;4163352;28;20104;-63
2022/01/01 02:54:26;;;;;;;0.00;0.00;;;7.30;88.30;;;;;;4172876;28;20075;-63
2022/01/01 02:56:50;;;;;;;0.00;0.00;;;7.30;88.20;;;;;;4179346;28;20450;-63
2022/01/01 02:59:14;;;;;;;0.00;0.00;;;7.30;88.10;;;;;;4178896;28;20102;-63
2022/01/01 03:01:37;;;;;;;0.00;0.00;;;7.40;88.10;;;;;;4178110;28;20540;-63
2022/01/01 03:04:00;;;;;;;0.00;0.00;;;7.40;88.10;;;;;;4180002;28;20087;-63
2022/01/01 03:06:23;;;;;;;0.00;0.00;;;7.30;88.10;;;;;;4180210;28;20107;-63
2022/01/01 03:08:55;;;;;;;0.00;0.00;;;7.30;88.00;;;;;;4178292;28;20064;-63
2022/01/01 03:11:19;;;;;;;0.00;0.00;;;7.20;87.90;;;;;;4175701;28;20081;-62
2022/01/01 03:13:42;;;;;;;0.00;0.00;;;7.20;88.00;;;;;;4163523;28;20140;-62
2022/01/01 03:16:05;;;;;;;0.00;0.00;;;7.20;88.10;;;;;;4179411;28;20157;-62
2022/01/01 03:18:28;;;;;;;0.00;0.00;;;7.20;88.10;;;;;;4179860;28;20053;-63
2022/01/01 03:20:50;;;;;;;0.00;0.00;;;7.20;88.10;;;;;;4179474;28;20171;-63
2022/01/01 03:23:13;;;;;;;0.00;0.00;;;7.30;87.90;;;;;;4165582;28;20154;-63
2022/01/01 03:25:36;;;;;;;0.00;0.00;;;7.30;87.90;;;;;;4164140;28;20444;-63
2022/01/01 03:28:00;;;;;;;0.00;0.00;;;7.30;88.00;;;;;;4179094;28;20234;-63
2022/01/01 03:30:23;;;;;;;0.00;0.00;;;7.20;88.00;;;;;;4162720;28;20545;-62
2022/01/01 03:32:46;;;;;;;0.00;0.00;;;7.20;88.10;;;;;;4163278;28;20061;-62
2022/01/01 03:35:15;;;;;;;0.00;0.00;;;7.20;88.30;;;;;;4162944;28;20228;-63
2022/01/01 03:37:42;;;;;;;0.00;0.00;;;7.10;88.20;;;;;;4163366;28;20108;-61
2022/01/01 03:40:06;;;;;;;0.00;0.00;;;7.20;88.10;;;;;;4163473;28;20524;-63
2022/01/01 03:42:28;;;;;;;0.00;0.00;;;7.10;87.90;;;;;;4179575;28;20506;-62
2022/01/01 03:44:51;;;;;;;0.00;0.00;;;7.10;87.80;;;;;;4173621;28;20123;-62
2022/01/01 03:47:14;;;;;;;0.00;0.00;;;7.10;87.70;;;;;;4172201;28;20529;-63
2022/01/01 03:49:38;;;;;;;0.00;0.00;;;7.10;87.90;;;;;;4178688;28;20085;-62
2022/01/01 03:52:00;;;;;;;0.00;0.00;;;7.10;87.90;;;;;;4178264;28;20130;-62
2022/01/01 03:54:23;;;;;;;0.00;0.00;;;7.00;87.80;;;;;;4177612;28;20093;-62
2022/01/01 03:56:47;;;;;;;0.00;0.00;;;7.10;87.90;;;;;;4178710;28;20479;-62
2022/01/01 03:59:09;;;;;;;0.00;0.00;;;7.00;87.80;;;;;;4179072;28;20064;-62
2022/01/01 04:01:32;;;;;;;0.00;0.00;;;7.10;87.90;;;;;;4167965;28;20068;-62
2022/01/01 04:03:55;;;;;;;0.00;0.00;;;7.00;87.90;;;;;;4168217;28;20079;-63
2022/01/01 04:06:18;;;;;;;0.00;0.00;;;7.00;87.80;;;;;;4166117;28;20085;-63
2022/01/01 04:08:41;;;;;;;0.00;0.00;;;7.10;87.90;;;;;;4166303;28;20084;-63
2022/01/01 04:11:03;;;;;;;0.00;0.00;;;7.10;88.00;;;;;;4165866;28;20099;-63
2022/01/01 04:13:26;;;;;;;0.00;0.00;;;7.00;87.90;;;;;;4166015;28;20055;-63
2022/01/01 04:15:49;;;;;;;0.00;0.00;;;7.00;87.90;;;;;;4165981;28;20576;-63
2022/01/01 04:18:14;;;;;;;0.00;0.00;;;7.00;87.80;;;;;;4165929;28;20088;-63
2022/01/01 04:20:38;;;;;;;0.00;0.00;;;7.00;87.80;;;;;;4165663;28;20138;-63
2022/01/01 04:23:01;;;;;;;0.00;0.00;;;7.10;87.90;;;;;;4165969;28;20103;-63
2022/01/01 04:25:25;;;;;;;0.00;0.00;;;7.10;87.90;;;;;;4165849;28;20650;-63
2022/01/01 04:27:49;;;;;;;0.00;0.00;;;7.00;87.80;;;;;;4165875;28;20143;-63
2022/01/01 04:30:13;;;;;;;0.00;0.00;;;7.00;87.70;;;;;;4165933;28;20084;-63
2022/01/01 04:32:36;;;;;;;0.00;0.00;;;7.00;87.60;;;;;;4165786;28;20124;-62
2022/01/01 04:34:59;;;;;;;0.00;0.00;;;7.00;87.70;;;;;;4165872;28;20133;-62
2022/01/01 04:37:21;;;;;;;0.00;0.00;;;6.90;87.70;;;;;;4165671;28;20100;-63
2022/01/01 04:39:44;;;;;;;0.00;0.00;;;7.00;87.90;;;;;;4165402;28;20080;-60
2022/01/01 04:42:07;;;;;;;0.00;0.00;;;7.00;87.70;;;;;;4165029;28;20157;-62
2022/01/01 04:44:30;;;;;;;0.00;0.00;;;6.90;87.70;;;;;;4165562;28;20875;-62
2022/01/01 04:46:52;;;;;;;0.00;0.00;;;6.90;87.70;;;;;;4165439;28;20483;-63
2022/01/01 04:49:15;;;;;;;0.00;0.00;;;6.90;87.90;;;;;;4165424;28;20137;-61
2022/01/01 04:51:38;;;;;;;0.00;0.00;;;6.90;88.00;;;;;;4165336;28;20529;-62
2022/01/01 04:54:02;;;;;;;0.00;0.00;;;6.90;88.00;;;;;;4165584;28;20056;-62
2022/01/01 04:56:25;;;;;;;0.00;0.00;;;6.90;87.90;;;;;;4164176;28;20081;-62
2022/01/01 04:58:47;;;;;;;0.00;0.00;;;6.90;88.00;;;;;;4164258;28;20558;-62
2022/01/01 05:01:10;;;;;;;0.00;0.00;;;6.90;87.90;;;;;;4164905;28;20482;-62
2022/01/01 05:03:33;;;;;;;0.00;0.00;;;6.90;87.80;;;;;;4165300;28;20055;-63
2022/01/01 05:05:55;;;;;;;0.00;0.00;;;6.80;87.80;;;;;;4164975;28;20045;-61
2022/01/01 05:08:18;;;;;;;0.00;0.00;;;6.80;87.90;;;;;;4165392;28;20580;-63
2022/01/01 05:10:41;;;;;;;0.00;0.00;;;6.80;88.00;;;;;;4164762;28;20099;-62
2022/01/01 05:13:04;;;;;;;0.00;0.00;;;6.80;88.10;;;;;;4164952;28;20076;-62
2022/01/01 05:15:26;;;;;;;0.00;0.00;;;6.80;88.40;;;;;;4165028;28;20111;-62
2022/01/01 05:17:49;;;;;;;0.00;0.00;;;6.80;88.50;;;;;;4165085;28;20096;-62
2022/01/01 05:20:12;;;;;;;0.00;0.00;;;6.90;88.60;;;;;;4165080;28;20525;-63
2022/01/01 05:22:35;;;;;;;0.00;0.00;;;6.90;88.70;;;;;;4164804;28;20525;-63
2022/01/01 05:24:59;;;;;;;0.00;0.00;;;6.90;88.70;;;;;;4164911;28;20168;-63
2022/01/01 05:27:22;;;;;;;0.00;0.00;;;6.90;88.90;;;;;;4165074;28;20091;-63
2022/01/01 05:29:45;;;;;;;0.00;0.00;;;6.90;89.00;;;;;;4163541;28;20053;-62
2022/01/01 05:32:08;;;;;;;0.00;0.00;;;6.90;89.20;;;;;;4163437;28;20059;-63
2022/01/01 05:34:30;;;;;;;0.00;0.00;;;6.80;89.30;;;;;;4191662;28;20054;-62
2022/01/01 05:36:53;;;;;;;0.00;0.00;;;6.80;89.40;;;;;;4191415;28;20063;-63
2022/01/01 05:39:15;;;;;;;0.00;0.00;;;6.80;89.50;;;;;;4163710;28;20057;-63
2022/01/01 05:41:38;;;;;;;0.00;0.00;;;6.80;89.70;;;;;;4163380;28;20075;-63
2022/01/01 05:44:00;;;;;;;0.00;0.00;;;6.80;89.70;;;;;;4163353;28;20107;-63
2022/01/01 05:46:22;;;;;;;0.00;0.00;;;6.50;89.60;;;;;;4163759;28;20494;-62
2022/01/01 05:48:45;;;;;;;0.00;0.00;;;6.40;90.30;;;;;;4163459;28;20049;-62
2022/01/01 05:51:08;;;;;;;0.00;0.00;;;6.50;90.10;;;;;;4190933;28;20532;-62
2022/01/01 05:53:31;;;;;;;0.00;0.00;;;6.50;90.00;;;;;;4163157;28;20045;-62
2022/01/01 05:55:53;;;;;;;0.00;0.00;;;6.50;89.80;;;;;;4163364;28;20053;-62
2022/01/01 05:58:16;;;;;;;0.00;0.00;;;6.60;89.50;;;;;;4177434;28;20048;-62
2022/01/01 06:00:46;;;;;;;0.00;0.00;;;6.60;89.50;;;;;;4162994;28;20064;-62
2022/01/01 06:03:09;;;;;;;0.00;0.00;;;6.60;89.40;;;;;;4176843;28;20063;-63
2022/01/01 06:05:32;;;;;;;0.00;0.00;;;6.60;89.30;;;;;;4163150;28;20053;-62
2022/01/01 06:07:55;;;;;;;0.00;0.00;;;6.50;89.10;;;;;;4149615;28;20119;-63
2022/01/01 06:10:18;;;;;;;0.00;0.00;;;6.50;89.30;;;;;;4162909;28;20045;-63
2022/01/01 06:12:41;;;;;;;0.00;0.00;;;6.50;89.30;;;;;;4162941;28;20049;-63
2022/01/01 06:15:03;;;;;;;0.00;0.00;;;6.50;89.10;;;;;;4163026;28;20108;-63
2022/01/01 06:17:26;;;;;;;0.00;0.00;;;6.40;89.60;;;;;;4162623;28;20053;-63
2022/01/01 06:19:51;;;;;;;0.00;0.00;;;6.50;89.10;;;;;;4162992;28;20060;-62
2022/01/01 06:22:14;;;;;;;0.00;0.00;;;6.50;89.00;;;;;;4161769;28;20064;-63
2022/01/01 06:24:36;;;;;;;0.00;0.00;;;6.50;89.10;;;;;;4162975;28;20049;-62
2022/01/01 06:26:59;;;;;;;0.00;0.00;;;6.50;89.30;;;;;;4176692;28;20064;-63
2022/01/01 06:29:21;;;;;;;0.00;0.00;;;6.60;89.40;;;;;;4162706;28;20043;-63
2022/01/01 06:31:44;;;;;;;0.00;0.00;;;6.50;89.40;;;;;;4190247;28;20075;-59
2022/01/01 06:34:08;;;;;;;0.00;0.00;;;6.60;89.50;;;;;;4176589;28;20037;-60
2022/01/01 06:36:30;;;;;;;0.00;0.00;;;6.60;89.40;;;;;;4162637;28;20568;-60
2022/01/01 06:38:52;;;;;;;0.00;0.00;;;6.60;89.30;;;;;;4162649;28;20041;-59
2022/01/01 06:41:16;;;;;;;0.00;0.00;;;6.60;89.30;;;;;;4162292;28;20541;-60
2022/01/01 06:43:40;;;;;;;0.00;0.00;;;6.60;89.20;;;;;;4149331;28;20045;-63
2022/01/01 06:46:02;;;;;;;0.00;0.00;;;6.60;89.20;;;;;;4162596;28;20112;-63
2022/01/01 06:48:25;;;;;;;0.00;0.00;;;6.60;89.20;;;;;;4162517;28;20065;-62
2022/01/01 06:50:47;;;;;;;0.00;0.00;;;6.60;89.20;;;;;;4162309;28;20057;-61
2022/01/01 06:53:10;;;;;;;0.00;0.00;;;6.50;89.10;;;;;;4162592;28;20176;-63
2022/01/01 06:55:33;;;;;;;0.00;0.00;;;6.50;89.30;;;;;;4162358;28;20049;-62
2022/01/01 06:57:59;;;;;;;0.00;0.00;;;6.50;89.20;;;;;;4162568;28;20748;-62
2022/01/01 07:00:22;;;;;;;0.00;0.00;;;6.50;89.30;;;;;;4148763;28;20603;-63
2022/01/01 07:02:47;;;;;;;0.00;0.00;;;6.50;89.30;;;;;;4175830;28;20525;-62
2022/01/01 07:05:12;;;;;;;0.00;0.00;;;6.50;89.70;;;;;;4162306;28;20049;-62
2022/01/01 07:07:36;;;;;;;0.00;0.00;;;6.50;89.80;;;;;;4162226;28;20425;-62
2022/01/01 07:09:58;;;;;;;0.00;0.00;;;6.50;89.80;;;;;;4175990;28;20041;-62
2022/01/01 07:12:21;;;;;;;0.00;0.00;;;6.50;90.00;;;;;;4176106;28;20076;-64
2022/01/01 07:14:44;;;;;;;0.00;0.00;;;6.50;90.30;;;;;;4162018;28;20056;-62
2022/01/01 07:17:06;;;;;;;0.00;0.00;;;6.50;90.10;;;;;;4161716;28;20057;-62
2022/01/01 07:19:29;;;;;;;0.00;0.00;;;6.50;90.20;;;;;;4162312;28;20053;-60
2022/01/01 07:21:51;;;;;;;0.00;0.00;;;6.50;90.20;;;;;;4189429;28;20109;-63
2022/01/01 07:24:14;;;;;;;0.00;0.00;;;6.50;90.20;;;;;;4176164;28;20059;-63
2022/01/01 07:26:36;;;;;;;0.00;0.00;;;6.50;90.30;;;;;;4162055;28;20053;-63
2022/01/01 07:28:59;;;;;;;0.00;0.00;;;6.50;90.50;;;;;;4162292;28;20165;-63
2022/01/01 07:31:21;;;;;;;0.00;0.00;;;6.50;90.60;;;;;;4161668;28;20054;-63
2022/01/01 07:33:44;;;;;;;0.00;0.00;;;6.50;90.80;;;;;;4150317;28;20061;-63
2022/01/01 07:36:06;;;;;;;0.00;0.00;;;6.50;90.70;;;;;;4165323;28;20049;-63
2022/01/01 07:38:28;;;;;;;0.00;0.00;;;6.60;90.80;;;;;;4165493;28;20406;-63
2022/01/01 07:40:51;;;;;;;0.00;0.00;;;6.60;90.80;;;;;;4178821;28;20045;-61
2022/01/01 07:43:15;;;;;;;0.00;0.00;;;6.70;90.90;;;;;;4165102;28;20046;-62
2022/01/01 07:45:39;;;;;;;0.00;0.00;;;6.70;90.90;;;;;;4165295;28;20045;-62
2022/01/01 07:48:01;;;;;;;0.00;0.00;;;6.80;91.00;;;;;;4165258;28;20053;-62
2022/01/01 07:50:24;;;;;;;0.00;0.00;;;6.90;90.90;;;;;;4165432;28;20053;-61
2022/01/01 07:52:46;;;;;;;0.00;0.00;;;6.80;90.90;;;;;;4165279;28;20114;-62
2022/01/01 07:55:09;;;;;;;0.00;0.00;;;6.80;90.90;;;;;;4165456;28;20576;-60
2022/01/01 07:57:32;;;;;;;0.00;0.00;;;7.00;90.90;;;;;;4164862;28;20111;-62
2022/01/01 07:59:55;;;;;;;0.00;0.00;;;7.20;90.80;;;;;;4165115;28;20494;-62
2022/01/01 08:02:17;;;;;;;0.00;0.00;;;7.50;90.70;;;;;;4192430;28;20040;-62
2022/01/01 08:04:40;;;;;;;0.00;0.00;;;7.90;90.60;;;;;;4179100;28;20044;-63
2022/01/01 08:07:03;;;;;;;0.00;0.00;;;8.30;90.40;;;;;;4165011;28;20045;-63
2022/01/01 08:09:45;;;;;;;0.00;0.00;;;8.70;90.20;;;;;;4192931;28;20044;-62
2022/01/01 08:12:08;;;;;;;0.00;0.00;;;8.90;90.00;;;;;;4164846;28;20059;-63
2022/01/01 08:14:30;;;;;;;0.00;0.00;;;9.30;89.90;;;;;;4164885;28;20049;-61
2022/01/01 08:17:01;;;;;;;0.00;0.00;;;9.60;89.20;;;;;;4164694;28;20465;-62
2022/01/01 08:19:24;;;;;;;0.00;0.00;;;9.80;88.20;;;;;;4164532;28;20057;-63
2022/01/01 08:21:47;;;;;;;0.00;0.00;;;9.60;86.60;;;;;;4164607;28;20495;-63
2022/01/01 08:24:12;;;;;;;0.00;0.00;;;9.20;87.70;;;;;;4164489;28;20060;-61
2022/01/01 08:26:35;;;;;;;0.00;0.00;;;9.00;88.30;;;;;;4164690;28;20080;-60
2022/01/01 08:28:57;;;;;;;0.00;0.00;;;9.10;88.40;;;;;;4164591;28;20060;-62
2022/01/01 08:31:19;;;;;;;0.00;0.00;;;9.20;88.50;;;;;;4170659;28;20063;-61
2022/01/01 08:33:42;;;;;;;0.00;0.00;;;9.40;88.10;;;;;;4181641;28;20067;-62
2022/01/01 08:36:05;;;;;;;0.00;0.00;;;9.80;87.30;;;;;;4182542;28;20138;-62
2022/01/01 08:38:28;;;;;;;0.00;0.00;;;10.00;86.50;;;;;;4181465;28;20080;-62
2022/01/01 08:40:50;;;;;;;0.00;0.00;;;10.30;85.60;;;;;;4182135;28;20514;-61
2022/01/01 08:43:13;;;;;;;0.00;0.00;;;10.50;85.10;;;;;;4182056;28;20142;-63
2022/01/01 08:45:37;;;;;;;0.00;0.00;;;10.90;84.20;;;;;;4181644;28;20055;-63
2022/01/01 08:48:02;;;;;;;0.00;0.00;;;11.20;82.80;;;;;;4182329;28;20083;-64
2022/01/01 08:50:24;;;;;;;0.00;0.00;;;11.40;81.80;;;;;;4181247;28;20095;-64
2022/01/01 08:52:48;;;;;;;0.00;0.00;;;11.40;81.20;;;;;;4182546;28;20091;-63
2022/01/01 08:55:11;;;;;;;0.00;0.00;;;11.00;81.30;;;;;;4182191;28;20076;-63
2022/01/01 08:57:36;;;;;;;0.00;0.00;;;10.60;82.10;;;;;;4182153;28;20092;-63
2022/01/01 09:00:01;;;;;;;0.00;0.00;;;10.70;82.40;;;;;;4182158;28;20556;-63
2022/01/01 09:02:24;;;;;;;0.00;0.00;;;10.90;82.00;;;;;;4181599;28;20095;-61
2022/01/01 09:04:47;;;;;;;0.00;0.00;;;11.10;80.80;;;;;;4182135;28;20572;-60
2022/01/01 09:07:10;;;;;;;0.00;0.00;;;11.10;80.10;;;;;;4181190;28;20152;-60
2022/01/01 09:09:32;;;;;;;0.00;0.00;;;11.20;79.60;;;;;;4182081;28;20126;-63
2022/01/01 09:11:55;;;;;;;0.00;0.00;;;11.40;78.60;;;;;;4181662;28;20087;-62
2022/01/01 09:14:18;;;;;;;0.00;0.00;;;11.40;78.60;;;;;;4181966;28;20045;-60
2022/01/01 09:16:40;;;;;;;0.00;0.00;;;11.70;78.60;;;;;;4181617;28;20083;-60
2022/01/01 09:19:05;;;;;;;0.00;0.00;;;12.10;77.90;;;;;;4181864;28;20095;-62
2022/01/01 09:21:28;;;;;;;0.00;0.00;;;12.40;76.60;;;;;;4181422;28;20095;-63
2022/01/01 09:23:51;;;;;;;0.00;0.00;;;12.80;76.80;;;;;;4181432;28;20068;-61
2022/01/01 09:26:13;;;;;;;0.00;0.00;;;13.10;75.30;;;;;;4181884;28;20095;-62
2022/01/01 09:28:36;;;;;;;0.00;0.00;;;13.30;74.80;;;;;;4181777;28;20145;-62
2022/01/01 09:31:00;;;;;;;0.00;0.00;;;13.70;74.40;;;;;;4181514;28;20175;-62
2022/01/01 09:33:27;;;;;;;0.00;0.00;;;13.90;74.10;;;;;;4181670;28;20564;-61
2022/01/01 09:35:50;;;;;;;0.00;0.00;;;14.00;72.60;;;;;;4181714;28;20067;-60
2022/01/01 09:38:12;;;;;;;0.00;0.00;;;13.80;72.50;;;;;;4181497;28;20414;-62
2022/01/01 09:40:36;;;;;;;0.00;0.00;;;13.60;72.90;;;;;;4181330;28;20522;-62
2022/01/01 09:42:59;;;;;;;0.00;0.00;;;13.50;73.60;;;;;;4181243;28;20150;-62
2022/01/01 09:45:22;;;;;;;0.00;0.00;;;13.60;73.00;;;;;;4181540;28;20611;-61
2022/01/01 09:47:46;;;;;;;0.00;0.00;;;13.30;73.30;;;;;;4181396;28;20194;-63
2022/01/01 09:50:09;;;;;;;0.00;0.00;;;12.80;75.10;;;;;;4181514;28;20470;-61
2022/01/01 09:52:33;;;;;;;0.00;0.00;;;12.50;76.20;;;;;;4181315;28;20128;-62
2022/01/01 09:54:55;;;;;;;0.00;0.00;;;13.10;76.30;;;;;;4181244;28;20461;-63
2022/01/01 09:57:18;;;;;;;0.00;0.00;;;13.80;74.00;;;;;;4179884;28;20088;-62
2022/01/01 09:59:41;;;;;;;0.00;0.00;;;14.00;73.50;;;;;;4181139;28;20506;-63
2022/01/01 10:02:04;;;;;;;0.00;0.00;;;14.40;73.00;;;;;;4180904;28;20477;-62
2022/01/01 10:04:48;;;;;;;0.00;0.00;;;14.70;70.80;;;;;;4181200;28;20569;-61
2022/01/01 10:07:12;;;;;;;0.00;0.00;;;14.70;70.80;;;;;;4181191;28;20517;-63
2022/01/01 10:09:39;;;;;;;0.00;0.00;;;15.20;70.90;;;;;;4180896;28;20106;-63
2022/01/01 10:12:06;;;;;;;0.00;0.00;;;15.20;68.50;;;;;;4180813;28;20561;-60
2022/01/01 10:14:40;;;;;;;0.00;0.00;;;14.30;70.00;;;;;;4181053;28;20088;-62
2022/01/01 10:17:21;;;;;;;0.00;0.00;;;14.00;71.50;;;;;;4180673;28;20121;-62
2022/01/01 10:19:45;;;;;;;0.00;0.00;;;13.90;71.50;;;;;;4180961;28;20087;-60
2022/01/01 10:22:12;;;;;;;0.00;0.00;;;14.90;70.90;;;;;;4180852;28;20132;-62
2022/01/01 10:27:42;;;;;;;0.00;0.00;;;15.60;68.80;;;;;;4180792;28;20493;-63
2022/01/01 10:27:43;;;;;;;0.00;0.00;;;15.70;67.30;;;;;;4180461;28;20071;-62
2022/01/01 10:30:06;;;;;;;0.00;0.00;;;16.00;67.30;;;;;;4180711;28;20091;-63
2022/01/01 10:32:29;;;;;;;0.00;0.00;;;16.20;65.80;;;;;;4170971;28;20084;-62
2022/01/01 10:34:52;;;;;;;0.00;0.00;;;15.80;66.60;;;;;;4180657;28;20075;-63
2022/01/01 10:37:32;;;;;;;0.00;0.00;;;15.80;67.30;;;;;;4179694;28;20092;-61
2022/01/01 10:39:55;;;;;;;0.00;0.00;;;16.40;65.20;;;;;;4180544;28;20140;-63
2022/01/01 10:42:19;;;;;;;0.00;0.00;;;17.00;64.40;;;;;;4180269;28;20156;-62
2022/01/01 10:44:47;;;;;;;0.00;0.00;;;17.50;62.50;;;;;;4179363;28;20140;-62
2022/01/01 10:47:21;;;;;;;0.00;0.00;;;17.90;61.40;;;;;;4180701;28;20138;-63
2022/01/01 10:52:29;;;;;;;0.00;0.00;;;17.20;61.40;;;;;;4179892;28;20122;-62
2022/01/01 10:54:53;;;;;;;0.00;0.00;;;17.60;61.30;;;;;;4180224;28;20519;-63
2022/01/01 10:57:51;;;;;;;0.00;0.00;;;17.90;59.40;;;;;;4180374;28;20076;-62
2022/01/01 11:00:20;;;;;;;0.00;0.00;;;18.20;58.70;;;;;;4180068;28;20087;-63
2022/01/01 11:02:49;;;;;;;0.00;0.00;;;18.70;58.40;;;;;;4179996;28;20091;-63
2022/01/01 11:05:12;;;;;;;0.00;0.00;;;19.00;56.80;;;;;;4180184;28;20059;-62
2022/01/01 11:07:35;;;;;;;0.00;0.00;;;19.70;55.00;;;;;;4179998;28;20059;-62
2022/01/01 11:09:59;;;;;;;0.00;0.00;;;19.80;53.70;;;;;;4180152;28;20092;-62
2022/01/01 11:12:27;;;;;;;0.00;0.00;;;20.40;51.90;;;;;;4180094;28;20064;-61
2022/01/01 11:14:53;;;;;;;0.00;0.00;;;20.80;50.30;;;;;;4180043;28;20206;-62
2022/01/01 11:17:16;;;;;;;0.00;0.00;;;20.60;50.20;;;;;;4179998;28;20091;-62
2022/01/01 11:19:43;;;;;;;0.00;0.00;;;20.60;49.10;;;;;;4179817;28;20075;-56
2022/01/01 11:22:06;;;;;;;0.00;0.00;;;20.30;49.20;;;;;;4179947;28;20143;-58
2022/01/01 11:24:31;;;;;;;0.00;0.00;;;20.90;48.70;;;;;;4179639;28;20149;-57
2022/01/01 11:26:55;;;;;;;0.00;0.00;;;21.30;47.70;;;;;;4180017;28;20151;-55
2022/01/01 11:29:18;;;;;;;0.00;0.00;;;21.60;46.10;;;;;;4180031;28;20142;-62
2022/01/01 11:31:46;;;;;;;0.00;0.00;;;21.60;45.70;;;;;;4179034;28;20861;-62
2022/01/01 11:34:09;;;;;;;0.00;0.00;;;21.30;45.70;;;;;;4179766;28;20091;-59
2022/01/01 11:36:34;;;;;;;0.00;0.00;;;20.20;46.10;;;;;;4179700;28;20051;-57
2022/01/01 11:38:59;;;;;;;0.00;0.00;;;19.20;47.60;;;;;;4179885;28;20159;-58
2022/01/01 11:41:23;;;;;;;0.00;0.00;;;18.70;48.10;;;;;;4179764;28;20110;-59
2022/01/01 11:43:51;;;;;;;0.00;0.00;;;17.70;49.60;;;;;;4179679;28;20182;-58
2022/01/01 11:46:20;;;;;;;0.00;0.00;;;16.40;52.70;;;;;;4179825;28;20092;-57
2022/01/01 11:48:55;;;;;;;0.00;0.00;;;15.30;56.20;;;;;;4179846;28;20102;-54
2022/01/01 11:51:35;;;;;;;0.00;0.00;;;14.60;58.50;;;;;;4178627;28;20060;-61
2022/01/01 11:54:10;;;;;;;0.00;0.00;;;14.70;58.60;;;;;;4179735;28;20466;-59
2022/01/01 11:56:51;;;;;;;0.00;0.00;;;14.70;58.20;;;;;;4179739;28;20449;-59
2022/01/01 11:59:26;;;;;;;0.00;0.00;;;14.70;58.00;;;;;;4179436;28;20067;-61
2022/01/01 12:01:54;;;;;;;0.00;0.00;;;14.50;58.60;;;;;;4179496;28;20106;-58
2022/01/01 12:04:33;;;;;;;0.00;0.00;;;14.40;59.00;;;;;;4178424;28;20110;-58
2022/01/01 12:07:10;;;;;;;0.00;0.00;;;14.30;58.90;;;;;;4179542;28;20095;-57
2022/01/01 12:10:06;;;;;;;0.00;0.00;;;14.10;59.60;;;;;;4179446;28;20104;-61
2022/01/01 12:12:50;;;;;;;0.00;0.00;;;14.00;60.60;;;;;;4179522;28;20403;-60
2022/01/01 12:15:38;;;;;;;0.00;0.00;;;13.20;63.70;;;;;;4179540;28;20131;-59
2022/01/01 12:18:27;;;;;;;0.00;0.00;;;12.70;64.10;;;;;;4179553;28;20637;-58
2022/01/01 12:21:01;;;;;;;0.00;0.00;;;12.40;65.20;;;;;;4180727;28;20134;-59
2022/01/01 12:23:25;;;;;;;0.00;0.00;;;12.40;65.20;;;;;;4182260;28;20103;-60
2022/01/01 12:25:51;;;;;;;0.00;0.00;;;12.80;64.10;;;;;;4182733;28;20088;-62
2022/01/01 12:28:18;;;;;;;0.00;0.00;;;13.00;63.50;;;;;;4181550;28;20088;-60
2022/01/01 12:30:48;;;;;;;0.00;0.00;;;13.10;63.00;;;;;;4181993;28;20051;-60
2022/01/01 12:33:48;;;;;;;0.00;0.00;;;13.20;62.70;;;;;;4182610;28;20057;-61
2022/01/01 12:36:11;;;;;;;0.00;0.00;;;12.80;63.50;;;;;;4181239;28;20142;-57
2022/01/01 12:38:39;;;;;;;0.00;0.00;;;12.60;64.50;;;;;;4182539;28;20560;-60
2022/01/01 12:41:07;;;;;;;0.00;0.00;;;12.70;64.20;;;;;;4182319;28;20176;-61
2022/01/01 12:43:41;;;;;;;0.00;0.00;;;12.80;63.80;;;;;;4182381;28;20509;-62
2022/01/01 12:46:04;;;;;;;0.00;0.00;;;12.90;63.90;;;;;;4182462;28;20067;-61
2022/01/01 12:48:32;;;;;;;0.00;0.00;;;12.70;64.10;;;;;;4182316;28;20055;-59